sensor_id;sensor_type;location;lat;lon;timestamp;P1;durP1;ratioP1;P2;durP2;ratioP2
12921;SDS011;6528;48.086;16.282;2023-11-18T00:00:00;3.20;;;1.60;;
12921;SDS011;6528;48.086;16.282;2023-11-18T00:02:27;2.50;;;1.50;;
12921;SDS011;6528;48.086;16.282;2023-11-18T00:04:54;2.03;;;1.80;;
12921;SDS011;6528;48.086;16.282;2023-11-18T00:07:22;1.70;;;1.60;;
12921;SDS011;6528;48.086;16.282;2023-11-18T00:09:49;1.67;;;1.57;;
12921;SDS011;6528;48.086;16.282;2023-11-18T00:12:16;1.77;;;1.67;;
12921;SDS011;6528;48.086;16.282;2023-11-18T00:14:43;1.80;;;1.47;;
12921;SDS011;6528;48.086;16.282;2023-11-18T00:17:11;1.70;;;1.60;;
12921;SDS011;6528;48.086;16.282;2023-11-18T00:19:39;1.53;;;1.43;;
12921;SDS011;6528;48.086;16.282;2023-11-18T00:22:06;2.30;;;1.70;;
12921;SDS011;6528;48.086;16.282;2023-11-18T00:24:33;1.77;;;1.67;;
12921;SDS011;6528;48.086;16.282;2023-11-18T00:27:01;1.30;;;1.20;;
12921;SDS011;6528;48.086;16.282;2023-11-18T00:29:34;1.63;;;1.53;;
12921;SDS011;6528;48.086;16.282;2023-11-18T00:32:04;1.60;;;1.50;;
12921;SDS011;6528;48.086;16.282;2023-11-18T00:34:33;1.50;;;1.40;;
12921;SDS011;6528;48.086;16.282;2023-11-18T00:37:01;1.57;;;1.40;;
12921;SDS011;6528;48.086;16.282;2023-11-18T00:39:28;1.70;;;1.50;;
12921;SDS011;6528;48.086;16.282;2023-11-18T00:41:55;1.40;;;1.30;;
12921;SDS011;6528;48.086;16.282;2023-11-18T00:44:23;1.10;;;1.10;;
12921;SDS011;6528;48.086;16.282;2023-11-18T00:46:50;1.50;;;1.40;;
12921;SDS011;6528;48.086;16.282;2023-11-18T00:49:18;2.00;;;1.40;;
12921;SDS011;6528;48.086;16.282;2023-11-18T00:51:46;1.53;;;1.43;;
12921;SDS011;6528;48.086;16.282;2023-11-18T00:54:13;2.20;;;1.70;;
12921;SDS011;6528;48.086;16.282;2023-11-18T00:56:40;1.67;;;1.57;;
12921;SDS011;6528;48.086;16.282;2023-11-18T00:59:08;1.10;;;1.10;;
12921;SDS011;6528;48.086;16.282;2023-11-18T01:01:36;1.20;;;1.10;;
12921;SDS011;6528;48.086;16.282;2023-11-18T01:04:04;1.40;;;1.30;;
12921;SDS011;6528;48.086;16.282;2023-11-18T01:06:32;1.03;;;1.00;;
12921;SDS011;6528;48.086;16.282;2023-11-18T01:08:59;1.00;;;1.00;;
12921;SDS011;6528;48.086;16.282;2023-11-18T01:11:27;1.13;;;1.03;;
12921;SDS011;6528;48.086;16.282;2023-11-18T01:13:56;1.90;;;1.37;;
12921;SDS011;6528;48.086;16.282;2023-11-18T01:16:23;1.30;;;1.30;;
12921;SDS011;6528;48.086;16.282;2023-11-18T01:18:50;1.50;;;1.40;;
12921;SDS011;6528;48.086;16.282;2023-11-18T01:21:18;1.40;;;1.30;;
12921;SDS011;6528;48.086;16.282;2023-11-18T01:23:46;1.43;;;1.10;;
12921;SDS011;6528;48.086;16.282;2023-11-18T01:26:13;1.20;;;1.20;;
12921;SDS011;6528;48.086;16.282;2023-11-18T01:28:41;1.30;;;1.10;;
12921;SDS011;6528;48.086;16.282;2023-11-18T01:31:10;1.40;;;1.30;;
12921;SDS011;6528;48.086;16.282;2023-11-18T01:33:40;1.90;;;1.40;;
12921;SDS011;6528;48.086;16.282;2023-11-18T01:36:08;1.13;;;1.13;;
12921;SDS011;6528;48.086;16.282;2023-11-18T01:38:36;1.00;;;1.00;;
12921;SDS011;6528;48.086;16.282;2023-11-18T01:41:07;1.20;;;1.10;;
12921;SDS011;6528;48.086;16.282;2023-11-18T01:43:36;1.30;;;1.20;;
12921;SDS011;6528;48.086;16.282;2023-11-18T01:46:04;1.73;;;1.40;;
12921;SDS011;6528;48.086;16.282;2023-11-18T01:48:37;1.23;;;1.10;;
12921;SDS011;6528;48.086;16.282;2023-11-18T01:51:06;1.30;;;1.20;;
12921;SDS011;6528;48.086;16.282;2023-11-18T01:53:36;1.40;;;1.30;;
12921;SDS011;6528;48.086;16.282;2023-11-18T01:56:07;2.63;;;1.07;;
12921;SDS011;6528;48.086;16.282;2023-11-18T01:58:35;1.67;;;1.57;;
12921;SDS011;6528;48.086;16.282;2023-11-18T02:01:03;0.80;;;0.80;;
12921;SDS011;6528;48.086;16.282;2023-11-18T02:03:34;0.90;;;0.90;;
12921;SDS011;6528;48.086;16.282;2023-11-18T02:06:03;1.77;;;1.10;;
12921;SDS011;6528;48.086;16.282;2023-11-18T02:08:35;0.87;;;0.87;;
12921;SDS011;6528;48.086;16.282;2023-11-18T02:11:05;1.13;;;1.10;;
12921;SDS011;6528;48.086;16.282;2023-11-18T02:13:39;1.27;;;1.17;;
12921;SDS011;6528;48.086;16.282;2023-11-18T02:16:07;1.00;;;0.90;;
12921;SDS011;6528;48.086;16.282;2023-11-18T02:18:35;1.10;;;0.90;;
12921;SDS011;6528;48.086;16.282;2023-11-18T02:21:07;1.00;;;0.97;;
12921;SDS011;6528;48.086;16.282;2023-11-18T02:23:36;1.30;;;1.20;;
12921;SDS011;6528;48.086;16.282;2023-11-18T02:26:04;1.30;;;1.17;;
12921;SDS011;6528;48.086;16.282;2023-11-18T02:28:32;0.97;;;0.97;;
12921;SDS011;6528;48.086;16.282;2023-11-18T02:31:02;0.77;;;0.77;;
12921;SDS011;6528;48.086;16.282;2023-11-18T02:33:45;1.03;;;1.03;;
12921;SDS011;6528;48.086;16.282;2023-11-18T02:36:20;1.10;;;1.00;;
12921;SDS011;6528;48.086;16.282;2023-11-18T02:39:11;1.00;;;1.00;;
12921;SDS011;6528;48.086;16.282;2023-11-18T02:41:45;0.80;;;0.80;;
12921;SDS011;6528;48.086;16.282;2023-11-18T02:44:15;1.00;;;1.00;;
12921;SDS011;6528;48.086;16.282;2023-11-18T02:46:44;0.80;;;0.80;;
12921;SDS011;6528;48.086;16.282;2023-11-18T02:49:11;0.70;;;0.70;;
12921;SDS011;6528;48.086;16.282;2023-11-18T02:51:39;1.20;;;1.00;;
12921;SDS011;6528;48.086;16.282;2023-11-18T02:54:07;0.70;;;0.70;;
12921;SDS011;6528;48.086;16.282;2023-11-18T02:56:37;1.10;;;1.00;;
12921;SDS011;6528;48.086;16.282;2023-11-18T02:59:05;1.20;;;1.10;;
12921;SDS011;6528;48.086;16.282;2023-11-18T03:01:33;1.13;;;1.03;;
12921;SDS011;6528;48.086;16.282;2023-11-18T03:04:01;1.10;;;1.00;;
12921;SDS011;6528;48.086;16.282;2023-11-18T03:06:29;0.93;;;0.93;;
12921;SDS011;6528;48.086;16.282;2023-11-18T03:08:56;0.83;;;0.83;;
12921;SDS011;6528;48.086;16.282;2023-11-18T03:11:24;0.80;;;0.80;;
12921;SDS011;6528;48.086;16.282;2023-11-18T03:13:51;0.80;;;0.80;;
12921;SDS011;6528;48.086;16.282;2023-11-18T03:16:19;0.70;;;0.70;;
12921;SDS011;6528;48.086;16.282;2023-11-18T03:18:47;0.93;;;0.93;;
12921;SDS011;6528;48.086;16.282;2023-11-18T03:21:14;0.83;;;0.83;;
12921;SDS011;6528;48.086;16.282;2023-11-18T03:23:42;1.07;;;0.90;;
12921;SDS011;6528;48.086;16.282;2023-11-18T03:26:09;1.17;;;0.70;;
12921;SDS011;6528;48.086;16.282;2023-11-18T03:28:37;0.90;;;0.90;;
12921;SDS011;6528;48.086;16.282;2023-11-18T03:31:05;1.00;;;0.90;;
12921;SDS011;6528;48.086;16.282;2023-11-18T03:33:33;0.70;;;0.70;;
12921;SDS011;6528;48.086;16.282;2023-11-18T03:36:00;0.80;;;0.80;;
12921;SDS011;6528;48.086;16.282;2023-11-18T03:38:28;0.80;;;0.80;;
12921;SDS011;6528;48.086;16.282;2023-11-18T03:40:55;0.90;;;0.80;;
12921;SDS011;6528;48.086;16.282;2023-11-18T03:43:25;0.83;;;0.83;;
12921;SDS011;6528;48.086;16.282;2023-11-18T03:45:52;0.63;;;0.63;;
12921;SDS011;6528;48.086;16.282;2023-11-18T03:48:23;0.80;;;0.80;;
12921;SDS011;6528;48.086;16.282;2023-11-18T03:50:51;0.70;;;0.70;;
12921;SDS011;6528;48.086;16.282;2023-11-18T03:53:20;1.67;;;0.73;;
12921;SDS011;6528;48.086;16.282;2023-11-18T03:55:47;0.70;;;0.70;;
12921;SDS011;6528;48.086;16.282;2023-11-18T03:58:15;0.87;;;0.60;;
12921;SDS011;6528;48.086;16.282;2023-11-18T04:00:42;0.83;;;0.80;;
12921;SDS011;6528;48.086;16.282;2023-11-18T04:03:09;0.60;;;0.60;;
12921;SDS011;6528;48.086;16.282;2023-11-18T04:05:36;0.80;;;0.80;;
12921;SDS011;6528;48.086;16.282;2023-11-18T04:08:05;0.77;;;0.77;;
12921;SDS011;6528;48.086;16.282;2023-11-18T04:10:33;0.57;;;0.50;;
12921;SDS011;6528;48.086;16.282;2023-11-18T04:13:00;0.80;;;0.80;;
12921;SDS011;6528;48.086;16.282;2023-11-18T04:15:28;0.60;;;0.60;;
12921;SDS011;6528;48.086;16.282;2023-11-18T04:17:55;0.80;;;0.80;;
12921;SDS011;6528;48.086;16.282;2023-11-18T04:20:22;0.60;;;0.60;;
12921;SDS011;6528;48.086;16.282;2023-11-18T04:22:49;0.80;;;0.80;;
12921;SDS011;6528;48.086;16.282;2023-11-18T04:25:17;0.80;;;0.77;;
12921;SDS011;6528;48.086;16.282;2023-11-18T04:27:44;1.63;;;1.03;;
12921;SDS011;6528;48.086;16.282;2023-11-18T04:30:13;0.90;;;0.90;;
12921;SDS011;6528;48.086;16.282;2023-11-18T04:32:40;1.00;;;0.90;;
12921;SDS011;6528;48.086;16.282;2023-11-18T04:35:09;1.50;;;0.90;;
12921;SDS011;6528;48.086;16.282;2023-11-18T04:37:39;0.80;;;0.80;;
12921;SDS011;6528;48.086;16.282;2023-11-18T04:40:10;0.70;;;0.70;;
12921;SDS011;6528;48.086;16.282;2023-11-18T04:42:38;1.40;;;0.80;;
12921;SDS011;6528;48.086;16.282;2023-11-18T04:45:06;0.67;;;0.67;;
12921;SDS011;6528;48.086;16.282;2023-11-18T04:47:36;1.00;;;1.00;;
12921;SDS011;6528;48.086;16.282;2023-11-18T04:50:05;0.90;;;0.90;;
12921;SDS011;6528;48.086;16.282;2023-11-18T04:52:35;0.80;;;0.80;;
12921;SDS011;6528;48.086;16.282;2023-11-18T04:55:03;0.70;;;0.70;;
12921;SDS011;6528;48.086;16.282;2023-11-18T04:57:32;1.00;;;1.00;;
12921;SDS011;6528;48.086;16.282;2023-11-18T05:00:01;1.10;;;0.90;;
12921;SDS011;6528;48.086;16.282;2023-11-18T05:02:38;0.50;;;0.50;;
12921;SDS011;6528;48.086;16.282;2023-11-18T05:05:05;0.70;;;0.70;;
12921;SDS011;6528;48.086;16.282;2023-11-18T05:07:33;0.70;;;0.70;;
12921;SDS011;6528;48.086;16.282;2023-11-18T05:10:01;0.77;;;0.77;;
12921;SDS011;6528;48.086;16.282;2023-11-18T05:12:32;0.83;;;0.60;;
12921;SDS011;6528;48.086;16.282;2023-11-18T05:14:59;1.77;;;0.80;;
12921;SDS011;6528;48.086;16.282;2023-11-18T05:17:27;0.70;;;0.70;;
12921;SDS011;6528;48.086;16.282;2023-11-18T05:19:54;0.80;;;0.80;;
12921;SDS011;6528;48.086;16.282;2023-11-18T05:22:22;0.50;;;0.50;;
12921;SDS011;6528;48.086;16.282;2023-11-18T05:24:49;0.53;;;0.53;;
12921;SDS011;6528;48.086;16.282;2023-11-18T05:27:17;0.60;;;0.60;;
12921;SDS011;6528;48.086;16.282;2023-11-18T05:29:45;0.90;;;0.90;;
12921;SDS011;6528;48.086;16.282;2023-11-18T05:32:15;0.63;;;0.63;;
12921;SDS011;6528;48.086;16.282;2023-11-18T05:34:42;0.70;;;0.70;;
12921;SDS011;6528;48.086;16.282;2023-11-18T05:37:09;0.63;;;0.63;;
12921;SDS011;6528;48.086;16.282;2023-11-18T05:39:38;0.87;;;0.87;;
12921;SDS011;6528;48.086;16.282;2023-11-18T05:42:10;0.77;;;0.77;;
12921;SDS011;6528;48.086;16.282;2023-11-18T05:44:38;0.60;;;0.60;;
12921;SDS011;6528;48.086;16.282;2023-11-18T05:47:06;0.80;;;0.70;;
12921;SDS011;6528;48.086;16.282;2023-11-18T05:49:34;0.53;;;0.53;;
12921;SDS011;6528;48.086;16.282;2023-11-18T05:52:01;0.73;;;0.73;;
12921;SDS011;6528;48.086;16.282;2023-11-18T05:54:29;0.87;;;0.80;;
12921;SDS011;6528;48.086;16.282;2023-11-18T05:56:57;0.83;;;0.83;;
12921;SDS011;6528;48.086;16.282;2023-11-18T05:59:26;0.93;;;0.70;;
12921;SDS011;6528;48.086;16.282;2023-11-18T06:01:53;0.70;;;0.53;;
12921;SDS011;6528;48.086;16.282;2023-11-18T06:04:23;0.70;;;0.70;;
12921;SDS011;6528;48.086;16.282;2023-11-18T06:06:52;0.80;;;0.80;;
12921;SDS011;6528;48.086;16.282;2023-11-18T06:09:19;0.70;;;0.70;;
12921;SDS011;6528;48.086;16.282;2023-11-18T06:11:52;0.80;;;0.80;;
12921;SDS011;6528;48.086;16.282;2023-11-18T06:14:20;1.00;;;1.00;;
12921;SDS011;6528;48.086;16.282;2023-11-18T06:16:48;0.67;;;0.67;;
12921;SDS011;6528;48.086;16.282;2023-11-18T06:19:17;0.80;;;0.80;;
12921;SDS011;6528;48.086;16.282;2023-11-18T06:21:45;0.70;;;0.70;;
12921;SDS011;6528;48.086;16.282;2023-11-18T06:24:12;0.83;;;0.80;;
12921;SDS011;6528;48.086;16.282;2023-11-18T06:26:41;0.80;;;0.80;;
12921;SDS011;6528;48.086;16.282;2023-11-18T06:29:08;0.77;;;0.77;;
12921;SDS011;6528;48.086;16.282;2023-11-18T06:31:37;1.80;;;0.73;;
12921;SDS011;6528;48.086;16.282;2023-11-18T06:34:06;0.60;;;0.60;;
12921;SDS011;6528;48.086;16.282;2023-11-18T06:36:34;0.70;;;0.60;;
12921;SDS011;6528;48.086;16.282;2023-11-18T06:39:01;0.90;;;0.90;;
12921;SDS011;6528;48.086;16.282;2023-11-18T06:41:31;0.77;;;0.77;;
12921;SDS011;6528;48.086;16.282;2023-11-18T06:44:03;0.80;;;0.80;;
12921;SDS011;6528;48.086;16.282;2023-11-18T06:46:39;0.80;;;0.80;;
12921;SDS011;6528;48.086;16.282;2023-11-18T06:49:07;0.70;;;0.70;;
12921;SDS011;6528;48.086;16.282;2023-11-18T06:51:37;1.10;;;1.10;;
12921;SDS011;6528;48.086;16.282;2023-11-18T06:54:05;0.90;;;0.70;;
12921;SDS011;6528;48.086;16.282;2023-11-18T06:56:38;0.80;;;0.80;;
12921;SDS011;6528;48.086;16.282;2023-11-18T06:59:10;1.30;;;1.17;;
12921;SDS011;6528;48.086;16.282;2023-11-18T07:01:40;1.00;;;1.00;;
12921;SDS011;6528;48.086;16.282;2023-11-18T07:04:12;1.23;;;1.00;;
12921;SDS011;6528;48.086;16.282;2023-11-18T07:06:42;2.57;;;1.00;;
12921;SDS011;6528;48.086;16.282;2023-11-18T07:09:10;1.07;;;1.07;;
12921;SDS011;6528;48.086;16.282;2023-11-18T07:11:45;1.03;;;1.03;;
12921;SDS011;6528;48.086;16.282;2023-11-18T07:14:14;1.00;;;1.00;;
12921;SDS011;6528;48.086;16.282;2023-11-18T07:16:43;0.97;;;0.90;;
12921;SDS011;6528;48.086;16.282;2023-11-18T07:19:11;1.27;;;1.20;;
12921;SDS011;6528;48.086;16.282;2023-11-18T07:21:48;1.33;;;1.20;;
12921;SDS011;6528;48.086;16.282;2023-11-18T07:24:17;1.20;;;1.20;;
12921;SDS011;6528;48.086;16.282;2023-11-18T07:26:44;1.53;;;1.10;;
12921;SDS011;6528;48.086;16.282;2023-11-18T07:29:12;1.20;;;1.20;;
12921;SDS011;6528;48.086;16.282;2023-11-18T07:31:40;1.03;;;1.00;;
12921;SDS011;6528;48.086;16.282;2023-11-18T07:34:07;0.97;;;0.97;;
12921;SDS011;6528;48.086;16.282;2023-11-18T07:36:35;3.83;;;1.50;;
12921;SDS011;6528;48.086;16.282;2023-11-18T07:39:02;1.63;;;1.53;;
12921;SDS011;6528;48.086;16.282;2023-11-18T07:41:33;1.30;;;1.20;;
12921;SDS011;6528;48.086;16.282;2023-11-18T07:44:00;1.90;;;1.20;;
12921;SDS011;6528;48.086;16.282;2023-11-18T07:46:28;9.20;;;1.80;;
12921;SDS011;6528;48.086;16.282;2023-11-18T07:48:58;1.70;;;1.60;;
12921;SDS011;6528;48.086;16.282;2023-11-18T07:51:28;2.10;;;1.90;;
12921;SDS011;6528;48.086;16.282;2023-11-18T07:53:55;3.23;;;2.90;;
12921;SDS011;6528;48.086;16.282;2023-11-18T07:56:23;4.70;;;3.70;;
12921;SDS011;6528;48.086;16.282;2023-11-18T07:58:50;4.37;;;3.10;;
12921;SDS011;6528;48.086;16.282;2023-11-18T08:01:19;8.23;;;4.00;;
12921;SDS011;6528;48.086;16.282;2023-11-18T08:03:48;5.50;;;3.83;;
12921;SDS011;6528;48.086;16.282;2023-11-18T08:06:17;5.17;;;3.93;;
12921;SDS011;6528;48.086;16.282;2023-11-18T08:08:44;6.13;;;3.50;;
12921;SDS011;6528;48.086;16.282;2023-11-18T08:11:14;6.00;;;3.70;;
12921;SDS011;6528;48.086;16.282;2023-11-18T08:13:41;7.37;;;3.60;;
12921;SDS011;6528;48.086;16.282;2023-11-18T08:16:10;5.00;;;3.63;;
12921;SDS011;6528;48.086;16.282;2023-11-18T08:18:39;5.20;;;3.13;;
12921;SDS011;6528;48.086;16.282;2023-11-18T08:21:07;4.23;;;3.07;;
12921;SDS011;6528;48.086;16.282;2023-11-18T08:23:34;6.20;;;3.77;;
12921;SDS011;6528;48.086;16.282;2023-11-18T08:26:02;6.47;;;3.27;;
12921;SDS011;6528;48.086;16.282;2023-11-18T08:28:30;4.20;;;3.37;;
12921;SDS011;6528;48.086;16.282;2023-11-18T08:30:57;4.30;;;2.87;;
12921;SDS011;6528;48.086;16.282;2023-11-18T08:33:24;3.90;;;3.30;;
12921;SDS011;6528;48.086;16.282;2023-11-18T08:35:52;3.93;;;2.87;;
12921;SDS011;6528;48.086;16.282;2023-11-18T08:38:19;8.37;;;3.40;;
12921;SDS011;6528;48.086;16.282;2023-11-18T08:40:46;4.30;;;2.47;;
12921;SDS011;6528;48.086;16.282;2023-11-18T08:43:15;7.80;;;3.20;;
12921;SDS011;6528;48.086;16.282;2023-11-18T08:45:43;3.87;;;2.83;;
12921;SDS011;6528;48.086;16.282;2023-11-18T08:48:11;4.77;;;2.90;;
12921;SDS011;6528;48.086;16.282;2023-11-18T08:50:38;2.53;;;2.33;;
12921;SDS011;6528;48.086;16.282;2023-11-18T08:53:09;3.80;;;2.80;;
12921;SDS011;6528;48.086;16.282;2023-11-18T08:55:38;4.20;;;2.90;;
12921;SDS011;6528;48.086;16.282;2023-11-18T08:58:09;3.00;;;2.53;;
12921;SDS011;6528;48.086;16.282;2023-11-18T09:00:55;2.77;;;2.57;;
12921;SDS011;6528;48.086;16.282;2023-11-18T09:03:32;5.93;;;2.73;;
12921;SDS011;6528;48.086;16.282;2023-11-18T09:06:04;3.73;;;2.90;;
12921;SDS011;6528;48.086;16.282;2023-11-18T09:08:38;2.70;;;2.50;;
12921;SDS011;6528;48.086;16.282;2023-11-18T09:11:10;2.67;;;2.43;;
12921;SDS011;6528;48.086;16.282;2023-11-18T09:13:42;3.60;;;2.37;;
12921;SDS011;6528;48.086;16.282;2023-11-18T09:16:11;2.47;;;2.27;;
12921;SDS011;6528;48.086;16.282;2023-11-18T09:18:40;3.57;;;2.10;;
12921;SDS011;6528;48.086;16.282;2023-11-18T09:21:09;3.63;;;2.37;;
12921;SDS011;6528;48.086;16.282;2023-11-18T09:23:42;2.50;;;1.90;;
12921;SDS011;6528;48.086;16.282;2023-11-18T09:26:11;2.13;;;1.90;;
12921;SDS011;6528;48.086;16.282;2023-11-18T09:28:38;3.27;;;2.33;;
12921;SDS011;6528;48.086;16.282;2023-11-18T09:31:06;3.67;;;2.40;;
12921;SDS011;6528;48.086;16.282;2023-11-18T09:33:39;2.83;;;2.10;;
12921;SDS011;6528;48.086;16.282;2023-11-18T09:36:11;3.40;;;2.13;;
12921;SDS011;6528;48.086;16.282;2023-11-18T09:38:39;2.60;;;2.40;;
12921;SDS011;6528;48.086;16.282;2023-11-18T09:41:09;4.07;;;2.90;;
12921;SDS011;6528;48.086;16.282;2023-11-18T09:43:40;7.93;;;6.30;;
12921;SDS011;6528;48.086;16.282;2023-11-18T09:48:45;16.83;;;14.70;;
12921;SDS011;6528;48.086;16.282;2023-11-18T09:51:23;24.43;;;20.97;;
12921;SDS011;6528;48.086;16.282;2023-11-18T09:53:53;31.93;;;25.93;;
12921;SDS011;6528;48.086;16.282;2023-11-18T09:59:32;52.00;;;41.10;;
12921;SDS011;6528;48.086;16.282;2023-11-18T10:02:12;57.30;;;46.27;;
12921;SDS011;6528;48.086;16.282;2023-11-18T10:04:41;56.67;;;45.60;;
12921;SDS011;6528;48.086;16.282;2023-11-18T10:07:08;59.93;;;50.60;;
12921;SDS011;6528;48.086;16.282;2023-11-18T10:09:37;55.70;;;48.80;;
12921;SDS011;6528;48.086;16.282;2023-11-18T10:12:08;59.97;;;47.63;;
12921;SDS011;6528;48.086;16.282;2023-11-18T10:14:41;59.37;;;46.77;;
12921;SDS011;6528;48.086;16.282;2023-11-18T10:17:12;55.30;;;44.00;;
12921;SDS011;6528;48.086;16.282;2023-11-18T10:19:59;48.43;;;42.60;;
12921;SDS011;6528;48.086;16.282;2023-11-18T10:22:27;45.40;;;39.80;;
12921;SDS011;6528;48.086;16.282;2023-11-18T10:24:56;54.37;;;42.20;;
12921;SDS011;6528;48.086;16.282;2023-11-18T10:27:25;46.53;;;38.60;;
12921;SDS011;6528;48.086;16.282;2023-11-18T10:32:24;40.03;;;33.63;;
12921;SDS011;6528;48.086;16.282;2023-11-18T10:34:57;41.37;;;32.10;;
12921;SDS011;6528;48.086;16.282;2023-11-18T10:37:26;38.10;;;29.80;;
12921;SDS011;6528;48.086;16.282;2023-11-18T10:39:58;34.27;;;28.73;;
12921;SDS011;6528;48.086;16.282;2023-11-18T10:42:31;30.50;;;27.20;;
12921;SDS011;6528;48.086;16.282;2023-11-18T10:44:59;30.20;;;26.50;;
12921;SDS011;6528;48.086;16.282;2023-11-18T10:47:33;37.13;;;26.67;;
12921;SDS011;6528;48.086;16.282;2023-11-18T10:50:02;29.43;;;24.03;;
12921;SDS011;6528;48.086;16.282;2023-11-18T10:52:29;27.83;;;21.57;;
12921;SDS011;6528;48.086;16.282;2023-11-18T10:55:01;24.70;;;22.17;;
12921;SDS011;6528;48.086;16.282;2023-11-18T10:57:33;24.40;;;21.73;;
12921;SDS011;6528;48.086;16.282;2023-11-18T11:00:03;23.60;;;19.70;;
12921;SDS011;6528;48.086;16.282;2023-11-18T11:02:40;25.87;;;19.70;;
12921;SDS011;6528;48.086;16.282;2023-11-18T11:05:08;22.67;;;18.97;;
12921;SDS011;6528;48.086;16.282;2023-11-18T11:07:47;23.17;;;18.20;;
12921;SDS011;6528;48.086;16.282;2023-11-18T11:10:16;18.93;;;16.07;;
12921;SDS011;6528;48.086;16.282;2023-11-18T11:12:46;22.53;;;17.00;;
12921;SDS011;6528;48.086;16.282;2023-11-18T11:15:21;16.77;;;14.60;;
12921;SDS011;6528;48.086;16.282;2023-11-18T11:17:56;19.97;;;14.87;;
12921;SDS011;6528;48.086;16.282;2023-11-18T11:28:58;15.63;;;12.30;;
12921;SDS011;6528;48.086;16.282;2023-11-18T11:31:43;17.87;;;12.57;;
12921;SDS011;6528;48.086;16.282;2023-11-18T11:34:18;17.07;;;11.90;;
12921;SDS011;6528;48.086;16.282;2023-11-18T11:36:51;13.07;;;10.80;;
12921;SDS011;6528;48.086;16.282;2023-11-18T11:39:19;13.13;;;10.80;;
12921;SDS011;6528;48.086;16.282;2023-11-18T11:41:56;13.17;;;9.90;;
12921;SDS011;6528;48.086;16.282;2023-11-18T11:44:25;9.97;;;8.73;;
12921;SDS011;6528;48.086;16.282;2023-11-18T11:46:57;11.60;;;9.23;;
12921;SDS011;6528;48.086;16.282;2023-11-18T11:49:35;14.40;;;9.40;;
12921;SDS011;6528;48.086;16.282;2023-11-18T11:52:11;11.97;;;8.90;;
12921;SDS011;6528;48.086;16.282;2023-11-18T11:55:07;9.43;;;8.30;;
12921;SDS011;6528;48.086;16.282;2023-11-18T11:57:39;11.67;;;7.93;;
12921;SDS011;6528;48.086;16.282;2023-11-18T12:00:09;8.97;;;7.47;;
12921;SDS011;6528;48.086;16.282;2023-11-18T12:02:52;14.97;;;8.63;;
12921;SDS011;6528;48.086;16.282;2023-11-18T12:05:23;9.77;;;8.47;;
12921;SDS011;6528;48.086;16.282;2023-11-18T12:07:53;12.63;;;7.77;;
12921;SDS011;6528;48.086;16.282;2023-11-18T12:10:31;9.33;;;7.10;;
12921;SDS011;6528;48.086;16.282;2023-11-18T12:13:08;8.80;;;7.57;;
12921;SDS011;6528;48.086;16.282;2023-11-18T12:18:32;9.37;;;6.77;;
12921;SDS011;6528;48.086;16.282;2023-11-18T12:21:00;8.97;;;6.80;;
12921;SDS011;6528;48.086;16.282;2023-11-18T12:23:31;7.27;;;6.10;;
12921;SDS011;6528;48.086;16.282;2023-11-18T12:26:01;8.03;;;6.20;;
12921;SDS011;6528;48.086;16.282;2023-11-18T12:28:31;9.20;;;6.70;;
12921;SDS011;6528;48.086;16.282;2023-11-18T12:31:12;7.77;;;6.27;;
12921;SDS011;6528;48.086;16.282;2023-11-18T12:34:09;7.03;;;5.80;;
12921;SDS011;6528;48.086;16.282;2023-11-18T12:36:44;9.70;;;6.40;;
12921;SDS011;6528;48.086;16.282;2023-11-18T12:42:37;7.40;;;5.77;;
12921;SDS011;6528;48.086;16.282;2023-11-18T12:48:32;6.30;;;5.50;;
12921;SDS011;6528;48.086;16.282;2023-11-18T12:51:03;7.80;;;5.60;;
12921;SDS011;6528;48.086;16.282;2023-11-18T12:53:36;6.57;;;5.13;;
12921;SDS011;6528;48.086;16.282;2023-11-18T12:56:03;6.23;;;5.10;;
12921;SDS011;6528;48.086;16.282;2023-11-18T12:58:31;7.07;;;5.27;;
12921;SDS011;6528;48.086;16.282;2023-11-18T13:01:00;5.87;;;5.23;;
12921;SDS011;6528;48.086;16.282;2023-11-18T13:03:29;7.37;;;5.30;;
12921;SDS011;6528;48.086;16.282;2023-11-18T13:05:57;4.50;;;4.10;;
12921;SDS011;6528;48.086;16.282;2023-11-18T13:08:24;4.63;;;4.23;;
12921;SDS011;6528;48.086;16.282;2023-11-18T13:10:53;8.40;;;4.63;;
12921;SDS011;6528;48.086;16.282;2023-11-18T13:13:20;6.73;;;5.13;;
12921;SDS011;6528;48.086;16.282;2023-11-18T13:15:49;4.90;;;4.30;;
12921;SDS011;6528;48.086;16.282;2023-11-18T13:18:17;4.80;;;4.13;;
12921;SDS011;6528;48.086;16.282;2023-11-18T13:20:54;5.83;;;5.23;;
12921;SDS011;6528;48.086;16.282;2023-11-18T13:23:25;4.40;;;4.00;;
12921;SDS011;6528;48.086;16.282;2023-11-18T13:25:58;4.63;;;4.23;;
12921;SDS011;6528;48.086;16.282;2023-11-18T13:28:27;4.33;;;3.90;;
12921;SDS011;6528;48.086;16.282;2023-11-18T13:30:54;5.07;;;3.80;;
12921;SDS011;6528;48.086;16.282;2023-11-18T13:33:21;4.60;;;4.20;;
12921;SDS011;6528;48.086;16.282;2023-11-18T13:35:50;3.90;;;3.50;;
12921;SDS011;6528;48.086;16.282;2023-11-18T13:38:17;4.70;;;3.63;;
12921;SDS011;6528;48.086;16.282;2023-11-18T13:40:45;4.20;;;3.80;;
12921;SDS011;6528;48.086;16.282;2023-11-18T13:43:16;5.53;;;3.70;;
12921;SDS011;6528;48.086;16.282;2023-11-18T13:45:43;5.13;;;3.17;;
12921;SDS011;6528;48.086;16.282;2023-11-18T13:48:17;4.47;;;4.07;;
12921;SDS011;6528;48.086;16.282;2023-11-18T13:50:44;5.77;;;3.37;;
12921;SDS011;6528;48.086;16.282;2023-11-18T13:53:11;6.13;;;3.57;;
12921;SDS011;6528;48.086;16.282;2023-11-18T13:55:39;4.67;;;3.97;;
12921;SDS011;6528;48.086;16.282;2023-11-18T13:58:07;5.40;;;3.63;;
12921;SDS011;6528;48.086;16.282;2023-11-18T14:00:37;4.40;;;3.10;;
12921;SDS011;6528;48.086;16.282;2023-11-18T14:03:04;3.40;;;3.10;;
12921;SDS011;6528;48.086;16.282;2023-11-18T14:05:34;3.47;;;3.17;;
12921;SDS011;6528;48.086;16.282;2023-11-18T14:08:02;3.47;;;3.17;;
12921;SDS011;6528;48.086;16.282;2023-11-18T14:10:36;4.00;;;3.23;;
12921;SDS011;6528;48.086;16.282;2023-11-18T14:13:07;4.53;;;3.53;;
12921;SDS011;6528;48.086;16.282;2023-11-18T14:15:38;3.17;;;2.87;;
12921;SDS011;6528;48.086;16.282;2023-11-18T14:18:09;3.03;;;2.83;;
12921;SDS011;6528;48.086;16.282;2023-11-18T14:20:36;3.20;;;2.90;;
12921;SDS011;6528;48.086;16.282;2023-11-18T14:23:03;5.23;;;3.00;;
12921;SDS011;6528;48.086;16.282;2023-11-18T14:25:34;3.50;;;2.67;;
12921;SDS011;6528;48.086;16.282;2023-11-18T14:28:01;4.10;;;3.67;;
12921;SDS011;6528;48.086;16.282;2023-11-18T14:30:31;3.23;;;2.73;;
12921;SDS011;6528;48.086;16.282;2023-11-18T14:32:57;3.03;;;2.83;;
12921;SDS011;6528;48.086;16.282;2023-11-18T14:35:24;3.07;;;2.87;;
12921;SDS011;6528;48.086;16.282;2023-11-18T14:37:55;4.00;;;3.00;;
12921;SDS011;6528;48.086;16.282;2023-11-18T14:40:22;2.73;;;2.53;;
12921;SDS011;6528;48.086;16.282;2023-11-18T14:42:52;2.90;;;2.70;;
12921;SDS011;6528;48.086;16.282;2023-11-18T14:45:20;2.70;;;2.50;;
12921;SDS011;6528;48.086;16.282;2023-11-18T14:47:48;5.03;;;2.93;;
12921;SDS011;6528;48.086;16.282;2023-11-18T14:50:19;4.60;;;3.07;;
12921;SDS011;6528;48.086;16.282;2023-11-18T14:52:48;3.57;;;3.17;;
12921;SDS011;6528;48.086;16.282;2023-11-18T14:55:18;2.93;;;2.47;;
12921;SDS011;6528;48.086;16.282;2023-11-18T14:57:45;3.17;;;2.87;;
12921;SDS011;6528;48.086;16.282;2023-11-18T15:00:13;2.83;;;2.63;;
12921;SDS011;6528;48.086;16.282;2023-11-18T15:02:49;4.57;;;3.00;;
12921;SDS011;6528;48.086;16.282;2023-11-18T15:05:21;2.40;;;2.20;;
12921;SDS011;6528;48.086;16.282;2023-11-18T15:07:53;2.97;;;2.63;;
12921;SDS011;6528;48.086;16.282;2023-11-18T15:10:22;2.90;;;2.70;;
12921;SDS011;6528;48.086;16.282;2023-11-18T15:12:59;2.43;;;2.33;;
12921;SDS011;6528;48.086;16.282;2023-11-18T15:15:31;2.73;;;2.53;;
12921;SDS011;6528;48.086;16.282;2023-11-18T15:18:05;2.87;;;2.50;;
12921;SDS011;6528;48.086;16.282;2023-11-18T15:20:35;2.33;;;2.23;;
12921;SDS011;6528;48.086;16.282;2023-11-18T15:23:03;3.20;;;3.00;;
12921;SDS011;6528;48.086;16.282;2023-11-18T15:25:31;2.60;;;2.40;;